Time,TemperatureF,DewpointF,PressureIn,WindDirection,WindDirectionDegrees,WindSpeedMPH,WindSpeedGustMPH,Humidity,HourlyPrecipIn,Conditions,Clouds,dailyrainin,SolarRadiationWatts/m^2,SoftwareType,DateUTC
2013-10-21 00:04:00,50.0,45.0,-100.00,NE,39,0.0,0.0,82,0.00,,,0.00,0.000000,,2013-10-21 05:04:00,
2013-10-21 00:13:00,50.0,45.0,-100.00,NE,39,0.0,0.0,82,0.00,,,0.00,0.000000,,2013-10-21 05:13:00,
2013-10-21 00:23:00,50.0,45.0,-100.00,NE,39,0.0,0.0,82,0.00,,,0.00,0.000000,,2013-10-21 05:23:00,
2013-10-21 00:32:00,49.0,44.0,-100.00,NE,47,0.0,0.0,83,0.00,,,0.00,0.000000,,2013-10-21 05:32:00,
2013-10-21 00:52:00,49.0,44.0,-100.00,NE,47,0.0,0.0,83,0.00,,,0.00,0.000000,,2013-10-21 05:52:00,
2013-10-21 01:02:00,49.0,44.0,-100.00,NE,47,0.0,0.0,83,0.00,,,0.00,0.000000,,2013-10-21 06:02:00,
2013-10-21 01:12:00,49.0,44.0,-100.00,NE,47,0.0,0.0,83,0.00,,,0.00,0.000000,,2013-10-21 06:12:00,
2013-10-21 01:22:00,49.0,44.0,-100.00,NE,47,0.0,0.0,83,0.00,,,0.00,0.000000,,2013-10-21 06:22:00,
2013-10-21 01:32:00,51.0,45.0,-100.00,ENE,61,1.0,2.0,81,0.00,,,0.00,0.000000,,2013-10-21 06:32:00,
2013-10-21 01:52:00,51.0,45.0,-100.00,ENE,61,1.0,2.0,81,0.00,,,0.00,0.000000,,2013-10-21 06:52:00,
2013-10-21 02:02:00,51.0,45.0,-100.00,ENE,61,1.0,2.0,81,0.00,,,0.00,0.000000,,2013-10-21 07:02:00,
2013-10-21 02:12:00,51.0,45.0,-100.00,ENE,61,1.0,2.0,81,0.00,,,0.00,0.000000,,2013-10-21 07:12:00,
2013-10-21 02:22:00,51.0,45.0,-100.00,ENE,61,1.0,2.0,81,0.00,,,0.00,0.000000,,2013-10-21 07:22:00,
2013-10-21 02:32:00,53.0,42.0,-100.00,East,96,2.0,7.0,67,0.00,,,0.00,0.000000,,2013-10-21 07:32:00,
2013-10-21 02:52:00,53.0,42.0,-100.00,East,96,2.0,7.0,67,0.00,,,0.00,0.000000,,2013-10-21 07:52:00,
2013-10-21 03:03:00,53.0,42.0,-100.00,East,96,2.0,7.0,67,0.00,,,0.00,0.000000,,2013-10-21 08:03:00,
2013-10-21 03:12:00,53.0,42.0,-100.00,East,96,2.0,7.0,67,0.00,,,0.00,0.000000,,2013-10-21 08:12:00,
2013-10-21 03:21:00,53.0,42.0,-100.00,East,96,2.0,7.0,67,0.00,,,0.00,0.000000,,2013-10-21 08:21:00,
2013-10-21 03:32:00,53.0,44.0,-100.00,East,89,1.0,5.0,71,0.00,,,0.00,0.000000,,2013-10-21 08:32:00,
2013-10-21 03:52:00,53.0,44.0,-100.00,East,89,1.0,5.0,71,0.00,,,0.00,0.000000,,2013-10-21 08:52:00,
2013-10-21 04:02:00,53.0,44.0,-100.00,East,89,1.0,5.0,71,0.00,,,0.00,0.000000,,2013-10-21 09:02:00,
2013-10-21 04:11:00,53.0,44.0,-100.00,East,89,1.0,5.0,71,0.00,,,0.00,0.000000,,2013-10-21 09:11:00,
2013-10-21 04:22:00,53.0,44.0,-100.00,East,89,1.0,5.0,71,0.00,,,0.00,0.000000,,2013-10-21 09:22:00,
2013-10-21 04:54:00,54.0,44.0,-100.00,SE,126,3.0,6.0,70,0.00,,,0.00,0.000000,,2013-10-21 09:54:00,
2013-10-21 05:03:00,54.0,44.0,-100.00,SE,126,3.0,6.0,70,0.00,,,0.00,0.000000,,2013-10-21 10:03:00,
2013-10-21 05:13:00,54.0,44.0,-100.00,SE,126,3.0,6.0,70,0.00,,,0.00,0.000000,,2013-10-21 10:13:00,
2013-10-21 05:32:00,50.0,45.0,-100.00,NE,45,1.0,3.0,84,0.00,,,0.00,0.000000,,2013-10-21 10:32:00,
2013-10-21 05:52:00,50.0,45.0,-100.00,NE,45,1.0,3.0,84,0.00,,,0.00,0.000000,,2013-10-21 10:52:00,
2013-10-21 06:02:00,50.0,45.0,-100.00,NE,45,1.0,3.0,84,0.00,,,0.00,0.000000,,2013-10-21 11:02:00,
2013-10-21 06:12:00,50.0,45.0,-100.00,NE,45,1.0,3.0,84,0.00,,,0.00,0.000000,,2013-10-21 11:12:00,
2013-10-21 06:22:00,50.0,45.0,-100.00,NE,45,1.0,3.0,84,0.00,,,0.00,0.000000,,2013-10-21 11:22:00,
2013-10-21 06:32:00,50.0,46.0,-100.00,NNW,336,0.0,3.0,86,0.00,,,0.00,0.000000,,2013-10-21 11:32:00,
2013-10-21 06:52:00,50.0,46.0,-100.00,NNW,336,0.0,3.0,86,0.00,,,0.00,0.000000,,2013-10-21 11:52:00,
2013-10-21 07:01:00,50.0,46.0,-100.00,NNW,336,0.0,3.0,86,0.00,,,0.00,0.000000,,2013-10-21 12:01:00,
2013-10-21 07:12:00,50.0,46.0,-100.00,NNW,336,0.0,3.0,86,0.00,,,0.00,0.000000,,2013-10-21 12:12:00,
2013-10-21 07:22:00,50.0,46.0,-100.00,NNW,336,0.0,3.0,86,0.00,,,0.00,0.000000,,2013-10-21 12:22:00,
2013-10-21 07:32:00,50.0,46.0,-100.00,NNE,20,0.0,0.0,87,0.00,,,0.00,2.000000,,2013-10-21 12:32:00,
2013-10-21 07:52:00,50.0,46.0,-100.00,NNE,20,0.0,0.0,87,0.00,,,0.00,2.000000,,2013-10-21 12:52:00,
2013-10-21 08:02:00,50.0,46.0,-100.00,NNE,20,0.0,0.0,87,0.00,,,0.00,2.000000,,2013-10-21 13:02:00,
2013-10-21 08:11:00,50.0,46.0,-100.00,NNE,20,0.0,0.0,87,0.00,,,0.00,2.000000,,2013-10-21 13:11:00,
2013-10-21 08:22:00,50.0,46.0,-100.00,NNE,20,0.0,0.0,87,0.00,,,0.00,2.000000,,2013-10-21 13:22:00,
2013-10-21 08:32:00,55.0,49.0,-100.00,NE,50,0.0,0.0,81,0.00,,,0.00,112.000000,,2013-10-21 13:32:00,
2013-10-21 08:52:00,55.0,49.0,-100.00,NE,50,0.0,0.0,81,0.00,,,0.00,112.000000,,2013-10-21 13:52:00,
2013-10-21 09:02:00,55.0,49.0,-100.00,NE,50,0.0,0.0,81,0.00,,,0.00,112.000000,,2013-10-21 14:02:00,
2013-10-21 09:12:00,55.0,49.0,-100.00,NE,50,0.0,0.0,81,0.00,,,0.00,112.000000,,2013-10-21 14:12:00,
2013-10-21 09:22:00,55.0,49.0,-100.00,NE,50,0.0,0.0,81,0.00,,,0.00,112.000000,,2013-10-21 14:22:00,
2013-10-21 09:32:00,62.0,54.0,-100.00,NE,55,2.0,3.0,74,0.00,,,0.00,282.000000,,2013-10-21 14:32:00,
2013-10-21 10:21:00,62.0,54.0,-100.00,NE,55,2.0,3.0,74,0.00,,,0.00,282.000000,,2013-10-21 15:21:00,
2013-10-21 10:32:00,67.0,56.0,-100.00,South,170,4.0,8.0,67,0.00,,,0.00,352.000000,,2013-10-21 15:32:00,
2013-10-21 10:54:00,67.0,56.0,-100.00,South,170,4.0,8.0,67,0.00,,,0.00,352.000000,,2013-10-21 15:54:00,
2013-10-21 11:03:00,67.0,56.0,-100.00,South,170,4.0,8.0,67,0.00,,,0.00,352.000000,,2013-10-21 16:03:00,
2013-10-21 11:23:00,67.0,56.0,-100.00,South,170,4.0,8.0,67,0.00,,,0.00,352.000000,,2013-10-21 16:23:00,
2013-10-21 11:32:00,69.0,55.0,-100.00,South,181,4.0,10.0,62,0.00,,,0.00,372.000000,,2013-10-21 16:32:00,
2013-10-21 11:54:00,69.0,55.0,-100.00,South,181,4.0,10.0,62,0.00,,,0.00,372.000000,,2013-10-21 16:54:00,
2013-10-21 12:02:00,69.0,55.0,-100.00,South,181,4.0,10.0,62,0.00,,,0.00,372.000000,,2013-10-21 17:02:00,
2013-10-21 12:12:00,69.0,55.0,-100.00,South,181,4.0,10.0,62,0.00,,,0.00,372.000000,,2013-10-21 17:12:00,
2013-10-21 12:22:00,69.0,55.0,-100.00,South,181,4.0,10.0,62,0.00,,,0.00,372.000000,,2013-10-21 17:22:00,
2013-10-21 12:32:00,71.0,56.0,-100.00,South,179,6.0,10.0,59,0.00,,,0.00,434.000000,,2013-10-21 17:32:00,
2013-10-21 12:53:00,71.0,56.0,-100.00,South,179,6.0,10.0,59,0.00,,,0.00,434.000000,,2013-10-21 17:53:00,
2013-10-21 13:02:00,71.0,56.0,-100.00,South,179,6.0,10.0,59,0.00,,,0.00,434.000000,,2013-10-21 18:02:00,
2013-10-21 13:12:00,71.0,56.0,-100.00,South,179,6.0,10.0,59,0.00,,,0.00,434.000000,,2013-10-21 18:12:00,
2013-10-21 13:22:00,71.0,56.0,-100.00,South,179,6.0,10.0,59,0.00,,,0.00,434.000000,,2013-10-21 18:22:00,
2013-10-21 13:32:00,72.0,56.0,-100.00,SSE,153,4.0,13.0,57,0.00,,,0.00,587.000000,,2013-10-21 18:32:00,
2013-10-21 14:11:00,72.0,56.0,-100.00,SSE,153,4.0,13.0,57,0.00,,,0.00,587.000000,,2013-10-21 19:11:00,
2013-10-21 14:22:00,72.0,56.0,-100.00,SSE,153,4.0,13.0,57,0.00,,,0.00,587.000000,,2013-10-21 19:22:00,
2013-10-21 14:32:00,73.0,57.0,-100.00,ESE,121,1.0,6.0,57,0.00,,,0.00,384.000000,,2013-10-21 19:32:00,
2013-10-21 14:52:00,73.0,57.0,-100.00,ESE,121,1.0,6.0,57,0.00,,,0.00,384.000000,,2013-10-21 19:52:00,
2013-10-21 15:02:00,73.0,57.0,-100.00,ESE,121,1.0,6.0,57,0.00,,,0.00,384.000000,,2013-10-21 20:02:00,
2013-10-21 15:11:00,73.0,57.0,-100.00,ESE,121,1.0,6.0,57,0.00,,,0.00,384.000000,,2013-10-21 20:11:00,
2013-10-21 15:22:00,73.0,57.0,-100.00,ESE,121,1.0,6.0,57,0.00,,,0.00,384.000000,,2013-10-21 20:22:00,
2013-10-21 15:32:00,71.0,57.0,-100.00,East,96,2.0,5.0,61,0.00,,,0.00,250.000000,,2013-10-21 20:32:00,
2013-10-21 15:53:00,71.0,57.0,-100.00,East,96,2.0,5.0,61,0.00,,,0.00,250.000000,,2013-10-21 20:53:00,
2013-10-21 16:03:00,71.0,57.0,-100.00,East,96,2.0,5.0,61,0.00,,,0.00,250.000000,,2013-10-21 21:03:00,
2013-10-21 16:12:00,71.0,57.0,-100.00,East,96,2.0,5.0,61,0.00,,,0.00,250.000000,,2013-10-21 21:12:00,
2013-10-21 16:22:00,71.0,57.0,-100.00,East,96,2.0,5.0,61,0.00,,,0.00,250.000000,,2013-10-21 21:22:00,
2013-10-21 16:32:00,70.0,59.0,-100.00,ENE,75,3.0,6.0,67,0.00,,,0.00,139.000000,,2013-10-21 21:32:00,
2013-10-21 16:54:00,70.0,59.0,-100.00,ENE,75,3.0,6.0,67,0.00,,,0.00,139.000000,,2013-10-21 21:54:00,
2013-10-21 17:04:00,70.0,59.0,-100.00,ENE,75,3.0,6.0,67,0.00,,,0.00,139.000000,,2013-10-21 22:04:00,
2013-10-21 17:13:00,70.0,59.0,-100.00,ENE,75,3.0,6.0,67,0.00,,,0.00,139.000000,,2013-10-21 22:13:00,
2013-10-21 17:24:00,70.0,59.0,-100.00,ENE,75,3.0,6.0,67,0.00,,,0.00,139.000000,,2013-10-21 22:24:00,
2013-10-21 17:32:00,68.0,58.0,-100.00,East,88,0.0,6.0,71,0.00,,,0.00,61.000000,,2013-10-21 22:32:00,
2013-10-21 18:13:00,68.0,58.0,-100.00,East,88,0.0,6.0,71,0.00,,,0.00,61.000000,,2013-10-21 23:13:00,
2013-10-21 18:22:00,68.0,58.0,-100.00,East,88,0.0,6.0,71,0.00,,,0.00,61.000000,,2013-10-21 23:22:00,
2013-10-21 18:32:00,67.0,57.0,-100.00,ESE,119,0.0,5.0,70,0.00,,,0.00,61.000000,,2013-10-21 23:32:00,
2013-10-21 18:53:00,67.0,57.0,-100.00,ESE,119,0.0,5.0,70,0.00,,,0.00,61.000000,,2013-10-21 23:53:00,
2013-10-21 19:02:00,67.0,57.0,-100.00,ESE,119,0.0,5.0,70,0.00,,,0.00,61.000000,,2013-10-22 00:02:00,
2013-10-21 19:12:00,67.0,57.0,-100.00,ESE,119,0.0,5.0,70,0.00,,,0.00,61.000000,,2013-10-22 00:12:00,
2013-10-21 19:22:00,67.0,57.0,-100.00,ESE,119,0.0,5.0,70,0.00,,,0.00,61.000000,,2013-10-22 00:22:00,
2013-10-21 19:32:00,62.0,57.0,-100.00,NNE,18,0.0,0.0,85,0.00,,,0.00,1.000000,,2013-10-22 00:32:00,
2013-10-21 19:53:00,62.0,57.0,-100.00,NNE,18,0.0,0.0,85,0.00,,,0.00,1.000000,,2013-10-22 00:53:00,
2013-10-21 20:03:00,62.0,57.0,-100.00,NNE,18,0.0,0.0,85,0.00,,,0.00,1.000000,,2013-10-22 01:03:00,
2013-10-21 20:12:00,62.0,57.0,-100.00,NNE,18,0.0,0.0,85,0.00,,,0.00,1.000000,,2013-10-22 01:12:00,
2013-10-21 20:22:00,62.0,57.0,-100.00,NNE,18,0.0,0.0,85,0.00,,,0.00,1.000000,,2013-10-22 01:22:00,
2013-10-21 20:32:00,61.0,57.0,-100.00,NNW,336,0.0,0.0,88,0.00,,,0.00,0.000000,,2013-10-22 01:32:00,
2013-10-21 20:53:00,61.0,57.0,-100.00,NNW,336,0.0,0.0,88,0.00,,,0.00,0.000000,,2013-10-22 01:53:00,
2013-10-21 21:02:00,61.0,57.0,-100.00,NNW,336,0.0,0.0,88,0.00,,,0.00,0.000000,,2013-10-22 02:02:00,
2013-10-21 21:11:00,61.0,57.0,-100.00,NNW,336,0.0,0.0,88,0.00,,,0.00,0.000000,,2013-10-22 02:11:00,
2013-10-21 21:22:00,61.0,57.0,-100.00,NNW,336,0.0,0.0,88,0.00,,,0.00,0.000000,,2013-10-22 02:22:00,
2013-10-21 21:32:00,60.0,57.0,-100.00,North,6,0.0,0.0,90,0.00,,,0.00,0.000000,,2013-10-22 02:32:00,
2013-10-21 21:52:00,60.0,57.0,-100.00,North,6,0.0,0.0,90,0.00,,,0.00,0.000000,,2013-10-22 02:52:00,
2013-10-21 22:03:00,60.0,57.0,-100.00,North,6,0.0,0.0,90,0.00,,,0.00,0.000000,,2013-10-22 03:03:00,
2013-10-21 22:12:00,60.0,57.0,-100.00,North,6,0.0,0.0,90,0.00,,,0.00,0.000000,,2013-10-22 03:12:00,
2013-10-21 22:22:00,60.0,57.0,-100.00,North,6,0.0,0.0,90,0.00,,,0.00,0.000000,,2013-10-22 03:22:00,
2013-10-21 22:32:00,60.0,57.0,-100.00,North,8,0.0,0.0,90,0.00,,,0.00,0.000000,,2013-10-22 03:32:00,
2013-10-21 22:55:00,60.0,57.0,-100.00,North,8,0.0,0.0,90,0.00,,,0.00,0.000000,,2013-10-22 03:55:00,
2013-10-21 23:05:00,60.0,57.0,-100.00,North,8,0.0,0.0,90,0.00,,,0.00,0.000000,,2013-10-22 04:05:00,
2013-10-21 23:13:00,60.0,57.0,-100.00,North,8,0.0,0.0,90,0.00,,,0.00,0.000000,,2013-10-22 04:13:00,
2013-10-21 23:25:00,60.0,57.0,-100.00,North,8,0.0,0.0,90,0.00,,,0.00,0.000000,,2013-10-22 04:25:00,
2013-10-21 23:32:00,59.0,56.0,-100.00,SSW,198,0.0,0.0,90,0.00,,,-99.99,0.000000,,2013-10-22 04:32:00,
2013-10-21 23:55:00,59.0,56.0,-100.00,SSW,198,0.0,0.0,90,0.00,,,-99.99,0.000000,,2013-10-22 04:55:00,